Time,TemperatureF,DewpointF,PressureIn,WindDirection,WindDirectionDegrees,WindSpeedMPH,WindSpeedGustMPH,Humidity,HourlyPrecipIn,Conditions,Clouds,dailyrainin,SolarRadiationWatts/m^2,SoftwareType,DateUTC
2013-02-03 00:02:00,53.0,47.0,-100.00,NW,326,3.0,4.0,80,0.00,,,0.00,0.000000,,2013-02-03 06:02:00,
2013-02-03 00:21:00,49.0,46.0,-100.00,WNW,298,0.0,3.0,90,0.00,,,0.00,0.000000,,2013-02-03 06:21:00,
2013-02-03 00:32:00,49.0,46.0,-100.00,WNW,298,0.0,3.0,90,0.00,,,0.00,0.000000,,2013-02-03 06:32:00,
2013-02-03 00:42:00,49.0,46.0,-100.00,WNW,298,0.0,3.0,90,0.00,,,0.00,0.000000,,2013-02-03 06:42:00,
2013-02-03 00:52:00,49.0,46.0,-100.00,WNW,298,0.0,3.0,90,0.00,,,0.00,0.000000,,2013-02-03 06:52:00,
2013-02-03 01:01:00,49.0,46.0,-100.00,WNW,298,0.0,3.0,90,0.00,,,0.00,0.000000,,2013-02-03 07:01:00,
2013-02-03 01:32:00,47.0,44.0,-100.00,SSW,213,1.0,4.0,89,0.00,,,0.00,0.000000,,2013-02-03 07:32:00,
2013-02-03 01:42:00,47.0,44.0,-100.00,SSW,213,1.0,4.0,89,0.00,,,0.00,0.000000,,2013-02-03 07:42:00,
2013-02-03 01:52:00,47.0,44.0,-100.00,SSW,213,1.0,4.0,89,0.00,,,0.00,0.000000,,2013-02-03 07:52:00,
2013-02-03 02:01:00,47.0,44.0,-100.00,SSW,213,1.0,4.0,89,0.00,,,0.00,0.000000,,2013-02-03 08:01:00,
2013-02-03 02:32:00,44.0,43.0,-100.00,NNW,343,0.0,0.0,95,0.00,,,0.00,0.000000,,2013-02-03 08:32:00,
2013-02-03 02:42:00,44.0,43.0,-100.00,NNW,343,0.0,0.0,95,0.00,,,0.00,0.000000,,2013-02-03 08:42:00,
2013-02-03 02:52:00,44.0,43.0,-100.00,NNW,343,0.0,0.0,95,0.00,,,0.00,0.000000,,2013-02-03 08:52:00,
2013-02-03 03:02:00,44.0,43.0,-100.00,NNW,343,0.0,0.0,95,0.00,,,0.00,0.000000,,2013-02-03 09:02:00,
2013-02-03 03:32:00,41.0,39.0,-100.00,East,83,0.0,2.0,94,0.00,,,0.00,0.000000,,2013-02-03 09:32:00,
2013-02-03 03:42:00,41.0,39.0,-100.00,East,83,0.0,2.0,94,0.00,,,0.00,0.000000,,2013-02-03 09:42:00,
2013-02-03 03:52:00,41.0,39.0,-100.00,East,83,0.0,2.0,94,0.00,,,0.00,0.000000,,2013-02-03 09:52:00,
2013-02-03 04:01:00,41.0,39.0,-100.00,East,83,0.0,2.0,94,0.00,,,0.00,0.000000,,2013-02-03 10:01:00,
2013-02-03 04:32:00,40.0,39.0,-100.00,North,350,0.0,0.0,96,0.00,,,0.00,0.000000,,2013-02-03 10:32:00,
2013-02-03 04:42:00,40.0,39.0,-100.00,North,350,0.0,0.0,96,0.00,,,0.00,0.000000,,2013-02-03 10:42:00,
2013-02-03 04:52:00,40.0,39.0,-100.00,North,350,0.0,0.0,96,0.00,,,0.00,0.000000,,2013-02-03 10:52:00,
2013-02-03 05:02:00,40.0,39.0,-100.00,North,350,0.0,0.0,96,0.00,,,0.00,0.000000,,2013-02-03 11:02:00,
2013-02-03 05:32:00,38.0,37.0,-100.00,North,2,0.0,0.0,96,0.00,,,0.00,0.000000,,2013-02-03 11:32:00,
2013-02-03 05:42:00,38.0,37.0,-100.00,North,2,0.0,0.0,96,0.00,,,0.00,0.000000,,2013-02-03 11:42:00,
2013-02-03 05:52:00,38.0,37.0,-100.00,North,2,0.0,0.0,96,0.00,,,0.00,0.000000,,2013-02-03 11:52:00,
2013-02-03 06:02:00,38.0,37.0,-100.00,North,2,0.0,0.0,96,0.00,,,0.00,0.000000,,2013-02-03 12:02:00,
2013-02-03 06:03:00,37.0,36.0,-100.00,North,5,1.0,4.0,95,0.00,,,0.00,0.000000,,2013-02-03 12:03:00,
2013-02-03 06:32:00,37.0,36.0,-100.00,North,5,1.0,4.0,95,0.00,,,0.00,0.000000,,2013-02-03 12:32:00,
2013-02-03 06:42:00,37.0,36.0,-100.00,North,5,1.0,4.0,95,0.00,,,0.00,0.000000,,2013-02-03 12:42:00,
2013-02-03 06:53:00,37.0,36.0,-100.00,North,5,1.0,4.0,95,0.00,,,0.00,0.000000,,2013-02-03 12:53:00,
2013-02-03 07:32:00,38.0,37.0,-100.00,NNW,346,2.0,4.0,95,0.00,,,0.00,0.000000,,2013-02-03 13:32:00,
2013-02-03 07:42:00,38.0,37.0,-100.00,NNW,346,2.0,4.0,95,0.00,,,0.00,0.000000,,2013-02-03 13:42:00,
2013-02-03 07:52:00,38.0,37.0,-100.00,NNW,346,2.0,4.0,95,0.00,,,0.00,0.000000,,2013-02-03 13:52:00,
2013-02-03 08:02:00,38.0,37.0,-100.00,NNW,346,2.0,4.0,95,0.00,,,0.00,0.000000,,2013-02-03 14:02:00,
2013-02-03 08:03:00,39.0,38.0,-100.00,SSW,202,0.0,3.0,95,0.00,,,0.00,46.000000,,2013-02-03 14:03:00,
2013-02-03 08:32:00,39.0,38.0,-100.00,SSW,202,0.0,3.0,95,0.00,,,0.00,46.000000,,2013-02-03 14:32:00,
2013-02-03 08:42:00,39.0,38.0,-100.00,SSW,202,0.0,3.0,95,0.00,,,0.00,46.000000,,2013-02-03 14:42:00,
2013-02-03 08:52:00,39.0,38.0,-100.00,SSW,202,0.0,3.0,95,0.00,,,0.00,46.000000,,2013-02-03 14:52:00,
2013-02-03 09:33:00,51.0,46.0,-100.00,SW,220,0.0,0.0,82,0.00,,,0.00,255.000000,,2013-02-03 15:33:00,
2013-02-03 09:42:00,51.0,46.0,-100.00,SW,220,0.0,0.0,82,0.00,,,0.00,255.000000,,2013-02-03 15:42:00,
2013-02-03 09:52:00,51.0,46.0,-100.00,SW,220,0.0,0.0,82,0.00,,,0.00,255.000000,,2013-02-03 15:52:00,
2013-02-03 10:02:00,51.0,46.0,-100.00,SW,220,0.0,0.0,82,0.00,,,0.00,255.000000,,2013-02-03 16:02:00,
2013-02-03 10:33:00,57.0,43.0,-100.00,SSW,209,3.0,5.0,60,0.00,,,0.00,438.000000,,2013-02-03 16:33:00,
2013-02-03 10:42:00,57.0,43.0,-100.00,SSW,209,3.0,5.0,60,0.00,,,0.00,438.000000,,2013-02-03 16:42:00,
2013-02-03 10:52:00,57.0,43.0,-100.00,SSW,209,3.0,5.0,60,0.00,,,0.00,438.000000,,2013-02-03 16:52:00,
2013-02-03 11:02:00,57.0,43.0,-100.00,SSW,209,3.0,5.0,60,0.00,,,0.00,438.000000,,2013-02-03 17:02:00,
2013-02-03 11:03:00,62.0,43.0,-100.00,SSW,210,3.0,6.0,49,0.00,,,-99.99,599.000000,,2013-02-03 17:03:00,
2013-02-03 11:32:00,62.0,43.0,-100.00,SSW,210,3.0,6.0,49,0.00,,,-99.99,599.000000,,2013-02-03 17:32:00,
2013-02-03 11:42:00,62.0,43.0,-100.00,SSW,210,3.0,6.0,49,0.00,,,-99.99,599.000000,,2013-02-03 17:42:00,
2013-02-03 11:52:00,62.0,43.0,-100.00,SSW,210,3.0,6.0,49,0.00,,,-99.99,599.000000,,2013-02-03 17:52:00,
2013-02-03 12:23:00,66.0,38.0,-100.00,SE,128,5.0,8.0,35,0.00,,,0.00,768.000000,,2013-02-03 18:23:00,
2013-02-03 12:33:00,66.0,38.0,-100.00,SE,128,5.0,8.0,35,0.00,,,0.00,768.000000,,2013-02-03 18:33:00,
2013-02-03 12:42:00,66.0,38.0,-100.00,SE,128,5.0,8.0,35,0.00,,,0.00,768.000000,,2013-02-03 18:42:00,
2013-02-03 12:52:00,66.0,38.0,-100.00,SE,128,5.0,8.0,35,0.00,,,0.00,768.000000,,2013-02-03 18:52:00,
2013-02-03 13:02:00,66.0,38.0,-100.00,SE,128,5.0,8.0,35,0.00,,,0.00,768.000000,,2013-02-03 19:02:00,
2013-02-03 13:33:00,68.0,31.0,-100.00,East,95,6.0,12.0,25,0.00,,,0.00,784.000000,,2013-02-03 19:33:00,
2013-02-03 13:42:00,68.0,31.0,-100.00,East,95,6.0,12.0,25,0.00,,,0.00,784.000000,,2013-02-03 19:42:00,
2013-02-03 13:52:00,68.0,31.0,-100.00,East,95,6.0,12.0,25,0.00,,,0.00,784.000000,,2013-02-03 19:52:00,
2013-02-03 14:01:00,68.0,31.0,-100.00,East,95,6.0,12.0,25,0.00,,,0.00,784.000000,,2013-02-03 20:01:00,
2013-02-03 14:03:00,70.0,28.0,-100.00,East,100,5.0,10.0,21,0.00,,,0.00,741.000000,,2013-02-03 20:03:00,
2013-02-03 14:33:00,70.0,28.0,-100.00,East,100,5.0,10.0,21,0.00,,,0.00,741.000000,,2013-02-03 20:33:00,
2013-02-03 14:42:00,70.0,28.0,-100.00,East,100,5.0,10.0,21,0.00,,,0.00,741.000000,,2013-02-03 20:42:00,
2013-02-03 14:52:00,70.0,28.0,-100.00,East,100,5.0,10.0,21,0.00,,,0.00,741.000000,,2013-02-03 20:52:00,
2013-02-03 15:33:00,71.0,28.0,-100.00,SE,126,4.0,10.0,20,0.00,,,0.00,673.000000,,2013-02-03 21:33:00,
2013-02-03 15:42:00,71.0,28.0,-100.00,SE,126,4.0,10.0,20,0.00,,,0.00,673.000000,,2013-02-03 21:42:00,
2013-02-03 15:52:00,71.0,28.0,-100.00,SE,126,4.0,10.0,20,0.00,,,0.00,673.000000,,2013-02-03 21:52:00,
2013-02-03 16:01:00,71.0,28.0,-100.00,SE,126,4.0,10.0,20,0.00,,,0.00,673.000000,,2013-02-03 22:01:00,
2013-02-03 16:32:00,70.0,25.0,-100.00,SE,139,4.0,10.0,18,0.00,,,0.00,496.000000,,2013-02-03 22:32:00,
2013-02-03 16:42:00,70.0,25.0,-100.00,SE,139,4.0,10.0,18,0.00,,,0.00,496.000000,,2013-02-03 22:42:00,
2013-02-03 16:52:00,70.0,25.0,-100.00,SE,139,4.0,10.0,18,0.00,,,0.00,496.000000,,2013-02-03 22:52:00,
2013-02-03 17:01:00,70.0,25.0,-100.00,SE,139,4.0,10.0,18,0.00,,,0.00,496.000000,,2013-02-03 23:01:00,
2013-02-03 17:32:00,68.0,29.0,-100.00,SSE,152,5.0,9.0,23,0.00,,,0.00,264.000000,,2013-02-03 23:32:00,
2013-02-03 17:42:00,68.0,29.0,-100.00,SSE,152,5.0,9.0,23,0.00,,,0.00,264.000000,,2013-02-03 23:42:00,
2013-02-03 17:52:00,68.0,29.0,-100.00,SSE,152,5.0,9.0,23,0.00,,,0.00,264.000000,,2013-02-03 23:52:00,
2013-02-03 18:01:00,68.0,29.0,-100.00,SSE,152,5.0,9.0,23,0.00,,,0.00,264.000000,,2013-02-04 00:01:00,
2013-02-03 18:32:00,63.0,26.0,-100.00,South,172,2.0,7.0,24,0.00,,,0.00,30.000000,,2013-02-04 00:32:00,
2013-02-03 18:42:00,63.0,26.0,-100.00,South,172,2.0,7.0,24,0.00,,,0.00,30.000000,,2013-02-04 00:42:00,
2013-02-03 18:52:00,63.0,26.0,-100.00,South,172,2.0,7.0,24,0.00,,,0.00,30.000000,,2013-02-04 00:52:00,
2013-02-03 19:01:00,63.0,26.0,-100.00,South,172,2.0,7.0,24,0.00,,,0.00,30.000000,,2013-02-04 01:01:00,
2013-02-03 19:22:00,53.0,37.0,-100.00,SW,225,0.0,4.0,55,0.00,,,0.00,0.000000,,2013-02-04 01:22:00,
2013-02-03 19:32:00,53.0,37.0,-100.00,SW,225,0.0,4.0,55,0.00,,,0.00,0.000000,,2013-02-04 01:32:00,
2013-02-03 20:02:00,53.0,37.0,-100.00,SW,225,0.0,4.0,55,0.00,,,0.00,0.000000,,2013-02-04 02:02:00,
2013-02-03 20:22:00,50.0,39.0,-100.00,North,4,0.0,0.0,65,0.00,,,0.00,0.000000,,2013-02-04 02:22:00,
2013-02-03 20:32:00,50.0,39.0,-100.00,North,4,0.0,0.0,65,0.00,,,0.00,0.000000,,2013-02-04 02:32:00,
2013-02-03 20:42:00,50.0,39.0,-100.00,North,4,0.0,0.0,65,0.00,,,0.00,0.000000,,2013-02-04 02:42:00,
2013-02-03 20:52:00,50.0,39.0,-100.00,North,4,0.0,0.0,65,0.00,,,0.00,0.000000,,2013-02-04 02:52:00,
2013-02-03 21:02:00,50.0,39.0,-100.00,North,4,0.0,0.0,65,0.00,,,0.00,0.000000,,2013-02-04 03:02:00,
2013-02-03 21:32:00,49.0,38.0,-100.00,NW,312,0.0,0.0,65,0.00,,,0.00,0.000000,,2013-02-04 03:32:00,
2013-02-03 21:42:00,49.0,38.0,-100.00,NW,312,0.0,0.0,65,0.00,,,0.00,0.000000,,2013-02-04 03:42:00,
2013-02-03 21:52:00,49.0,38.0,-100.00,NW,312,0.0,0.0,65,0.00,,,0.00,0.000000,,2013-02-04 03:52:00,
2013-02-03 22:01:00,49.0,38.0,-100.00,NW,312,0.0,0.0,65,0.00,,,0.00,0.000000,,2013-02-04 04:01:00,
2013-02-03 22:03:00,46.0,38.0,-100.00,NNE,33,0.0,0.0,74,0.00,,,0.00,0.000000,,2013-02-04 04:03:00,
2013-02-03 22:32:00,46.0,38.0,-100.00,NNE,33,0.0,0.0,74,0.00,,,0.00,0.000000,,2013-02-04 04:32:00,
2013-02-03 22:42:00,46.0,38.0,-100.00,NNE,33,0.0,0.0,74,0.00,,,0.00,0.000000,,2013-02-04 04:42:00,
2013-02-03 22:52:00,46.0,38.0,-100.00,NNE,33,0.0,0.0,74,0.00,,,0.00,0.000000,,2013-02-04 04:52:00,
2013-02-03 23:22:00,50.0,37.0,-100.00,SSW,206,2.0,7.0,60,-99.99,,,0.00,0.000000,,2013-02-04 05:22:00,
2013-02-03 23:33:00,50.0,37.0,-100.00,SSW,206,2.0,7.0,60,-99.99,,,0.00,0.000000,,2013-02-04 05:33:00,
2013-02-03 23:42:00,50.0,37.0,-100.00,SSW,206,2.0,7.0,60,-99.99,,,0.00,0.000000,,2013-02-04 05:42:00,
2013-02-03 23:52:00,50.0,37.0,-100.00,SSW,206,2.0,7.0,60,-99.99,,,0.00,0.000000,,2013-02-04 05:52:00,